createdAt,value
2023-02-11T00:02:06.193Z,44.70
2023-02-11T00:04:32.860Z,42.95
2023-02-11T00:06:59.749Z,53.22
2023-02-11T00:09:26.449Z,48.03
2023-02-11T00:11:53.342Z,51.20
2023-02-11T00:14:20.280Z,44.88
2023-02-11T00:16:47.382Z,46.97
2023-02-11T00:19:14.043Z,49.10
2023-02-11T00:21:40.766Z,45.13
2023-02-11T00:24:07.562Z,49.28
2023-02-11T00:26:35.829Z,52.92
2023-02-11T00:29:03.142Z,50.80
2023-02-11T00:31:29.998Z,51.72
2023-02-11T00:33:57.209Z,46.80
2023-02-11T00:36:27.270Z,45.45
2023-02-11T00:38:54.966Z,45.22
2023-02-11T00:41:22.329Z,47.13
2023-02-11T00:43:49.983Z,50.75
2023-02-11T00:46:17.414Z,48.63
2023-02-11T00:48:44.327Z,43.40
2023-02-11T00:51:12.141Z,55.03
2023-02-11T00:53:39.372Z,55.35
2023-02-11T00:56:08.822Z,46.83
2023-02-11T00:58:36.882Z,49.22
2023-02-11T01:01:04.189Z,44.10
2023-02-11T01:03:30.894Z,53.13
2023-02-11T01:05:58.055Z,44.00
2023-02-11T01:08:26.866Z,44.85
2023-02-11T01:11:03.726Z,46.03
2023-02-11T01:13:33.819Z,49.85
2023-02-11T01:16:00.507Z,53.33
2023-02-11T01:18:27.442Z,51.88
2023-02-11T01:20:54.772Z,47.40
2023-02-11T01:23:22.714Z,45.90
2023-02-11T01:25:50.197Z,45.95
2023-02-11T01:28:24.498Z,48.05
2023-02-11T01:30:52.027Z,45.85
2023-02-11T01:33:18.816Z,45.67
2023-02-11T01:35:45.902Z,51.22
2023-02-11T01:38:23.546Z,51.03
2023-02-11T01:40:59.915Z,49.42
2023-02-11T01:43:30.633Z,50.10
2023-02-11T01:46:15.084Z,45.55
2023-02-11T01:51:18.527Z,44.97
2023-02-11T01:54:06.349Z,46.35
2023-02-11T01:56:53.455Z,46.30
2023-02-11T01:59:24.786Z,46.65
2023-02-11T02:01:58.955Z,42.33
2023-02-11T02:04:32.304Z,46.42
2023-02-11T02:07:35.469Z,42.50
2023-02-11T02:10:08.201Z,47.40
2023-02-11T02:12:35.404Z,49.50
2023-02-11T02:15:26.580Z,49.38
2023-02-11T02:18:25.491Z,42.78
2023-02-11T02:21:21.719Z,42.28
2023-02-11T02:24:26.767Z,51.85
2023-02-11T02:27:17.715Z,56.03
2023-02-11T02:30:05.312Z,48.50
2023-02-11T02:32:53.776Z,42.35
2023-02-11T02:35:34.637Z,49.75
2023-02-11T02:38:21.340Z,47.55
2023-02-11T02:41:01.486Z,47.40
2023-02-11T02:43:31.040Z,51.20
2023-02-11T02:46:13.772Z,50.45
2023-02-11T02:48:40.376Z,46.42
2023-02-11T02:51:39.597Z,46.05
2023-02-11T02:54:36.050Z,43.30
2023-02-11T02:57:33.803Z,55.28
2023-02-11T03:00:18.821Z,47.63
2023-02-11T03:03:03.160Z,49.67
2023-02-11T03:08:18.146Z,53.28
2023-02-11T03:10:49.489Z,45.97
2023-02-11T03:13:19.509Z,49.60
2023-02-11T03:15:51.269Z,49.25
2023-02-11T03:18:21.326Z,53.95
2023-02-11T03:20:52.289Z,47.15
2023-02-11T03:23:52.834Z,49.95
2023-02-11T03:26:28.861Z,50.53
2023-02-11T03:29:05.323Z,48.10
2023-02-11T03:31:42.606Z,51.97
2023-02-11T03:34:19.244Z,46.70
2023-02-11T03:37:07.335Z,45.58
2023-02-11T03:39:54.899Z,43.28
2023-02-11T03:42:26.581Z,47.72
2023-02-11T03:45:03.901Z,57.72
2023-02-11T03:47:33.894Z,52.78
2023-02-11T03:50:04.577Z,49.70
2023-02-11T03:52:32.821Z,56.75
2023-02-11T03:55:02.832Z,50.90
2023-02-11T03:57:30.274Z,46.60
2023-02-11T03:59:59.301Z,58.95
2023-02-11T04:02:32.004Z,55.08
2023-02-11T04:04:58.862Z,56.03
2023-02-11T04:07:26.043Z,45.35
2023-02-11T04:09:56.763Z,48.58
2023-02-11T04:12:25.393Z,46.72
2023-02-11T04:14:52.048Z,52.15
2023-02-11T04:17:19.056Z,46.78
2023-02-11T04:19:45.994Z,51.50
2023-02-11T04:22:12.789Z,55.13
2023-02-11T04:24:41.269Z,52.80
2023-02-11T04:27:08.185Z,53.22
2023-02-11T04:29:34.943Z,55.03
2023-02-11T04:32:03.749Z,56.58
2023-02-11T04:34:30.793Z,56.17
2023-02-11T04:36:57.657Z,52.10
2023-02-11T04:39:24.373Z,65.07
2023-02-11T04:41:54.893Z,54.10
2023-02-11T04:44:22.607Z,53.55
2023-02-11T04:46:49.193Z,59.53
2023-02-11T04:49:18.231Z,56.53
2023-02-11T04:51:48.229Z,55.85
2023-02-11T04:54:18.703Z,59.97
2023-02-11T04:56:46.371Z,62.20
2023-02-11T04:59:13.622Z,65.00
2023-02-11T05:01:41.254Z,63.53
2023-02-11T05:04:07.969Z,62.92
2023-02-11T05:06:34.770Z,73.05
2023-02-11T05:09:01.683Z,71.25
2023-02-11T05:11:28.544Z,67.15
2023-02-11T05:13:57.117Z,66.45
2023-02-11T05:16:25.553Z,64.82
2023-02-11T05:18:53.788Z,70.35
2023-02-11T05:21:20.771Z,72.30
2023-02-11T05:23:48.016Z,64.97
2023-02-11T05:26:15.267Z,68.95
2023-02-11T05:28:42.807Z,62.65
2023-02-11T05:31:09.926Z,63.65
2023-02-11T05:33:36.871Z,64.25
2023-02-11T05:36:08.542Z,67.22
2023-02-11T05:38:39.364Z,71.63
2023-02-11T05:41:07.433Z,60.25
2023-02-11T05:43:35.421Z,64.50
2023-02-11T05:46:03.729Z,75.78
2023-02-11T05:48:31.063Z,64.38
2023-02-11T05:50:58.156Z,78.63
2023-02-11T05:53:24.941Z,68.10
2023-02-11T05:55:51.962Z,77.60
2023-02-11T05:58:18.758Z,67.70
2023-02-11T06:00:47.194Z,66.38
2023-02-11T06:03:13.993Z,68.70
2023-02-11T06:05:42.372Z,68.78
2023-02-11T06:08:09.108Z,67.18
2023-02-11T06:10:36.836Z,76.45
2023-02-11T06:13:06.377Z,72.00
2023-02-11T06:15:33.406Z,69.40
2023-02-11T06:18:00.237Z,77.78
2023-02-11T06:20:27.322Z,67.50
2023-02-11T06:22:54.367Z,71.45
2023-02-11T06:25:21.284Z,71.10
2023-02-11T06:27:49.678Z,81.43
2023-02-11T06:30:17.111Z,76.40
2023-02-11T06:32:45.685Z,86.95
2023-02-11T06:35:14.529Z,75.03
2023-02-11T06:37:42.539Z,92.40
2023-02-11T06:40:11.122Z,81.05
2023-02-11T06:42:39.519Z,98.65
2023-02-11T06:45:11.032Z,84.70
2023-02-11T06:47:38.198Z,92.57
2023-02-11T06:50:08.826Z,79.38
2023-02-11T06:52:38.170Z,88.85
2023-02-11T06:55:06.373Z,78.15
2023-02-11T06:57:35.027Z,90.50
2023-02-11T07:00:02.047Z,89.05
2023-02-11T07:02:30.167Z,87.97
2023-02-11T07:04:58.224Z,96.38
2023-02-11T07:07:25.641Z,87.00
2023-02-11T07:09:55.376Z,92.85
2023-02-11T07:12:24.695Z,80.13
2023-02-11T07:14:52.403Z,81.85
2023-02-11T07:17:19.339Z,85.32
2023-02-11T07:19:51.223Z,87.22
2023-02-11T07:22:18.657Z,78.75
2023-02-11T07:24:45.617Z,79.22
2023-02-11T07:27:13.134Z,83.60
2023-02-11T07:29:40.233Z,81.22
2023-02-11T07:32:08.681Z,77.53
2023-02-11T07:34:35.806Z,78.35
2023-02-11T07:37:07.429Z,76.65
2023-02-11T07:42:15.770Z,76.88
2023-02-11T07:44:42.738Z,70.47
2023-02-11T07:47:09.688Z,93.32
2023-02-11T07:49:38.070Z,72.55
2023-02-11T07:52:10.396Z,78.85
2023-02-11T07:54:37.085Z,75.78
2023-02-11T07:57:03.948Z,79.47
2023-02-11T07:59:30.907Z,75.15
2023-02-11T08:01:57.513Z,71.43
2023-02-11T08:04:24.168Z,68.03
2023-02-11T08:06:53.128Z,67.47
2023-02-11T08:09:20.195Z,67.25
2023-02-11T08:11:48.626Z,71.03
2023-02-11T08:14:15.615Z,75.97
2023-02-11T08:16:49.812Z,81.75
2023-02-11T08:19:21.216Z,74.38
2023-02-11T08:21:48.236Z,97.72
2023-02-11T08:24:14.860Z,70.13
2023-02-11T08:26:42.434Z,76.60
2023-02-11T08:29:12.050Z,82.60
2023-02-11T08:31:42.143Z,80.13
2023-02-11T08:34:11.077Z,82.43
2023-02-11T08:42:05.602Z,75.72
2023-02-11T08:44:33.442Z,76.25
2023-02-11T08:47:04.093Z,65.93
2023-02-11T08:49:34.110Z,81.47
2023-02-11T08:52:04.642Z,72.75
2023-02-11T08:54:32.204Z,81.13
2023-02-11T08:56:58.906Z,92.47
2023-02-11T08:59:25.764Z,81.97
2023-02-11T09:01:53.814Z,73.72
2023-02-11T09:04:22.788Z,68.07
2023-02-11T09:06:50.341Z,83.25
2023-02-11T09:09:17.683Z,70.68
2023-02-11T09:11:44.960Z,74.32
2023-02-11T09:14:21.721Z,75.03
2023-02-11T09:16:49.750Z,62.35
2023-02-11T09:19:17.735Z,67.70
2023-02-11T09:21:45.725Z,65.15
2023-02-11T09:24:12.615Z,75.80
2023-02-11T09:26:43.316Z,78.97
2023-02-11T09:29:11.169Z,72.10
2023-02-11T09:31:37.994Z,64.00
2023-02-11T09:34:06.339Z,72.10
2023-02-11T09:36:40.460Z,77.45
2023-02-11T09:39:12.060Z,74.75
2023-02-11T09:42:06.908Z,64.85
2023-02-11T09:44:35.796Z,68.32
2023-02-11T09:47:20.323Z,66.60
2023-02-11T09:49:53.858Z,63.85
2023-02-11T09:52:33.955Z,62.88
2023-02-11T09:55:05.066Z,61.20
2023-02-11T09:57:37.302Z,68.60
2023-02-11T10:00:28.686Z,76.20
2023-02-11T10:03:28.129Z,70.60
2023-02-11T10:06:15.717Z,58.80
2023-02-11T10:09:01.488Z,73.97
2023-02-11T10:11:46.492Z,59.42
2023-02-11T10:14:16.166Z,64.45
2023-02-11T10:17:11.696Z,62.13
2023-02-11T10:22:39.171Z,65.90
2023-02-11T10:28:26.253Z,74.90
2023-02-11T10:31:07.495Z,66.78
2023-02-11T10:33:49.800Z,68.55
2023-02-11T10:36:21.169Z,65.00
2023-02-11T10:38:48.225Z,69.93
2023-02-11T10:41:23.177Z,62.65
2023-02-11T10:43:54.460Z,55.90
2023-02-11T10:46:37.753Z,62.90
2023-02-11T10:49:15.574Z,71.28
2023-02-11T10:51:42.993Z,71.15
2023-02-11T10:54:21.395Z,64.55
2023-02-11T10:56:54.024Z,60.40
2023-02-11T10:59:40.760Z,60.80
2023-02-11T11:02:25.528Z,61.58
2023-02-11T11:05:01.361Z,59.65
2023-02-11T11:07:30.953Z,55.45
2023-02-11T11:10:02.846Z,62.33
2023-02-11T11:12:49.161Z,67.72
2023-02-11T11:15:35.004Z,63.25
2023-02-11T11:18:22.527Z,70.25
2023-02-11T11:21:13.552Z,50.58
2023-02-11T11:23:41.681Z,56.75
2023-02-11T11:26:12.471Z,61.78
2023-02-11T11:29:02.537Z,60.90
2023-02-11T11:31:36.404Z,49.60
2023-02-11T11:34:21.723Z,45.30
2023-02-11T11:36:49.579Z,49.58
2023-02-11T11:39:25.351Z,58.92
2023-02-11T11:41:57.725Z,44.95
2023-02-11T11:44:59.891Z,47.90
2023-02-11T11:47:43.899Z,53.38
2023-02-11T11:50:57.836Z,48.70
2023-02-11T11:53:44.966Z,44.80
2023-02-11T11:56:23.339Z,32.55
2023-02-11T11:58:51.027Z,39.53
2023-02-11T12:01:45.684Z,42.78
2023-02-11T12:04:46.272Z,34.42
2023-02-11T12:07:36.905Z,36.08
2023-02-11T12:10:37.715Z,37.47
2023-02-11T12:13:18.617Z,37.28
2023-02-11T12:16:13.818Z,34.53
2023-02-11T12:19:18.781Z,34.05
2023-02-11T12:22:07.070Z,36.42
2023-02-11T12:24:57.531Z,33.72
2023-02-11T12:27:51.757Z,38.47
2023-02-11T12:30:37.310Z,33.33
2023-02-11T12:33:23.149Z,34.25
2023-02-11T12:36:15.066Z,31.45
2023-02-11T12:39:17.764Z,33.08
2023-02-11T12:42:38.335Z,35.45
2023-02-11T12:45:22.625Z,37.55
2023-02-11T12:50:43.349Z,31.15
2023-02-11T12:53:39.572Z,38.33
2023-02-11T12:57:03.508Z,38.15
2023-02-11T12:59:44.708Z,36.22
2023-02-11T13:02:35.274Z,40.95
2023-02-11T13:07:43.293Z,28.75
2023-02-11T13:10:27.371Z,35.22
2023-02-11T13:13:15.036Z,36.05
2023-02-11T13:15:44.919Z,30.60
2023-02-11T13:18:49.722Z,30.60
2023-02-11T13:21:17.676Z,35.58
2023-02-11T13:23:49.298Z,29.20
2023-02-11T13:26:42.598Z,32.72
2023-02-11T13:29:23.064Z,32.15
2023-02-11T13:32:12.119Z,27.30
2023-02-11T13:34:42.198Z,33.53
2023-02-11T13:37:27.950Z,34.15
2023-02-11T13:40:04.994Z,27.58
2023-02-11T13:42:44.925Z,29.40
2023-02-11T13:45:30.041Z,30.92
2023-02-11T13:48:02.819Z,26.45
2023-02-11T13:50:32.730Z,39.78
2023-02-11T13:53:03.729Z,31.38
2023-02-11T13:55:30.963Z,33.30
2023-02-11T13:58:08.862Z,31.08
2023-02-11T14:00:35.513Z,30.35
2023-02-11T14:03:42.926Z,30.63
2023-02-11T14:06:27.920Z,29.35
2023-02-11T14:09:17.837Z,32.70
2023-02-11T14:11:52.203Z,31.38
2023-02-11T14:14:27.189Z,31.52
2023-02-11T14:17:02.019Z,31.35
2023-02-11T14:19:34.759Z,32.60
2023-02-11T14:22:13.570Z,31.25
2023-02-11T14:24:53.434Z,28.92
2023-02-11T14:27:36.437Z,31.42
2023-02-11T14:30:12.595Z,29.67
2023-02-11T14:32:49.249Z,34.05
2023-02-11T14:35:34.445Z,29.65
2023-02-11T14:38:09.335Z,29.10
2023-02-11T14:40:59.122Z,33.13
2023-02-11T14:43:33.439Z,29.10
2023-02-11T14:46:02.700Z,33.58
2023-02-11T14:48:38.486Z,31.95
2023-02-11T14:51:13.784Z,26.42
2023-02-11T14:53:45.518Z,27.45
2023-02-11T14:58:53.564Z,22.90
2023-02-11T15:01:28.703Z,27.50
2023-02-11T15:03:56.729Z,26.48
2023-02-11T15:06:28.386Z,21.23
2023-02-11T15:09:04.344Z,34.17
2023-02-11T15:11:43.146Z,29.00
2023-02-11T15:14:26.610Z,32.25
2023-02-11T15:16:57.162Z,29.80
2023-02-11T15:19:32.360Z,31.92
2023-02-11T15:22:01.355Z,27.80
2023-02-11T15:24:33.744Z,31.48
2023-02-11T15:27:03.294Z,25.05
2023-02-11T15:29:45.762Z,26.50
2023-02-11T15:32:22.233Z,28.80
2023-02-11T15:34:51.258Z,24.40
2023-02-11T15:37:30.083Z,31.98
2023-02-11T15:40:16.793Z,28.20
2023-02-11T15:43:11.325Z,30.13
2023-02-11T15:45:42.891Z,28.40
2023-02-11T15:48:21.916Z,25.77
2023-02-11T15:50:58.689Z,30.52
2023-02-11T15:53:28.108Z,30.65
2023-02-11T15:56:16.228Z,26.02
2023-02-11T15:58:45.660Z,26.15
2023-02-11T16:01:13.289Z,30.52
2023-02-11T16:03:42.654Z,28.08
2023-02-11T16:06:23.040Z,27.65
2023-02-11T16:09:11.025Z,27.95
2023-02-11T16:11:54.958Z,24.88
2023-02-11T16:14:30.381Z,24.40
2023-02-11T16:17:07.837Z,23.17
2023-02-11T16:19:35.648Z,25.58
2023-02-11T16:22:12.210Z,24.55
2023-02-11T16:24:39.795Z,22.17
2023-02-11T16:27:18.295Z,22.75
2023-02-11T16:29:48.696Z,23.08
2023-02-11T16:32:26.432Z,20.80
2023-02-11T16:34:58.117Z,18.52
2023-02-11T16:37:25.602Z,21.65
2023-02-11T16:39:56.532Z,21.45
2023-02-11T16:42:25.134Z,24.13
2023-02-11T16:44:51.733Z,21.75
2023-02-11T16:47:29.020Z,18.98
2023-02-11T16:49:56.360Z,25.70
2023-02-11T16:52:23.427Z,20.48
2023-02-11T16:54:50.541Z,22.98
2023-02-11T16:57:22.686Z,21.33
2023-02-11T16:59:49.562Z,22.42
2023-02-11T17:02:28.431Z,19.88
2023-02-11T17:04:59.090Z,22.95
2023-02-11T17:07:28.787Z,22.90
2023-02-11T17:09:56.313Z,17.92
2023-02-11T17:12:25.539Z,17.20
2023-02-11T17:14:52.630Z,21.83
2023-02-11T17:17:19.253Z,22.75
2023-02-11T17:19:47.954Z,18.70
2023-02-11T17:22:16.376Z,17.38
2023-02-11T17:24:42.938Z,19.05
2023-02-11T17:27:11.496Z,19.83
2023-02-11T17:29:38.049Z,18.63
2023-02-11T17:32:06.244Z,20.77
2023-02-11T17:34:33.237Z,27.70
2023-02-11T17:37:00.471Z,21.88
2023-02-11T17:39:30.238Z,17.95
2023-02-11T17:41:56.789Z,17.67
2023-02-11T17:44:23.848Z,23.65
2023-02-11T17:46:50.408Z,23.02
2023-02-11T17:49:17.118Z,21.95
2023-02-11T17:51:43.864Z,20.45
2023-02-11T17:54:15.450Z,18.73
2023-02-11T17:56:42.785Z,21.30
2023-02-11T17:59:13.431Z,20.20
2023-02-11T18:01:41.296Z,17.67
2023-02-11T18:04:10.988Z,20.58
2023-02-11T18:06:38.311Z,18.88
2023-02-11T18:09:05.191Z,19.35
2023-02-11T18:11:36.308Z,21.40
2023-02-11T18:14:04.776Z,15.70
2023-02-11T18:16:31.911Z,19.13
2023-02-11T18:19:00.270Z,26.52
2023-02-11T18:21:28.617Z,21.35
2023-02-11T18:23:57.115Z,24.73
2023-02-11T18:26:26.250Z,20.58
2023-02-11T18:28:52.919Z,25.63
2023-02-11T18:31:20.326Z,22.33
2023-02-11T18:33:48.052Z,25.88
2023-02-11T18:36:16.259Z,25.63
2023-02-11T18:38:44.645Z,26.27
2023-02-11T18:41:12.342Z,26.17
2023-02-11T18:43:40.107Z,18.65
2023-02-11T18:46:09.373Z,28.27
2023-02-11T18:48:36.310Z,27.35
2023-02-11T18:51:14.909Z,28.73
2023-02-11T18:53:41.904Z,19.38
2023-02-11T18:56:13.362Z,33.63
2023-02-11T18:58:40.297Z,17.90
2023-02-11T19:01:15.836Z,18.45
2023-02-11T19:03:43.438Z,25.35
2023-02-11T19:06:18.304Z,19.10
2023-02-11T19:08:45.744Z,17.98
2023-02-11T19:11:13.256Z,16.65
2023-02-11T19:13:40.091Z,19.65
2023-02-11T19:16:11.208Z,17.67
2023-02-11T19:18:39.117Z,20.30
2023-02-11T19:21:10.404Z,20.63
2023-02-11T19:23:37.559Z,20.08
2023-02-11T19:26:06.681Z,20.38
2023-02-11T19:28:37.072Z,18.45
2023-02-11T19:31:09.927Z,19.65
2023-02-11T19:33:37.028Z,19.48
2023-02-11T19:36:07.828Z,24.10
2023-02-11T19:38:37.329Z,22.98
2023-02-11T19:41:06.675Z,21.23
2023-02-11T19:43:33.870Z,20.85
2023-02-11T19:46:07.261Z,21.00
2023-02-11T19:48:34.768Z,21.90
2023-02-11T19:51:13.179Z,21.48
2023-02-11T19:53:39.955Z,26.25
2023-02-11T19:56:10.728Z,23.65
2023-02-11T19:58:38.923Z,27.05
2023-02-11T20:01:13.558Z,23.85
2023-02-11T20:03:42.510Z,21.52
2023-02-11T20:06:15.221Z,25.70
2023-02-11T20:08:42.158Z,26.30
2023-02-11T20:11:21.137Z,28.65
2023-02-11T20:13:53.221Z,22.23
2023-02-11T20:16:36.817Z,23.65
2023-02-11T20:19:16.903Z,23.15
2023-02-11T20:21:47.980Z,25.25
2023-02-11T20:24:16.267Z,23.75
2023-02-11T20:26:42.937Z,28.52
2023-02-11T20:29:10.127Z,27.45
2023-02-11T20:31:39.876Z,20.92
2023-02-11T20:34:06.879Z,21.83
2023-02-11T20:36:36.112Z,23.27
2023-02-11T20:39:06.497Z,25.52
2023-02-11T20:41:35.722Z,25.00
2023-02-11T20:44:07.154Z,26.40
2023-02-11T20:46:35.215Z,23.75
2023-02-11T20:49:03.970Z,24.05
2023-02-11T20:51:35.499Z,22.77
2023-02-11T20:54:02.332Z,23.80
2023-02-11T20:56:35.700Z,21.40
2023-02-11T20:59:06.105Z,21.13
2023-02-11T21:01:35.672Z,22.08
2023-02-11T21:04:07.005Z,23.55
2023-02-11T21:06:40.960Z,24.90
2023-02-11T21:09:13.828Z,15.70
2023-02-11T21:11:45.659Z,18.33
2023-02-11T21:16:42.635Z,19.98
2023-02-11T21:19:11.738Z,25.55
2023-02-11T21:21:39.547Z,26.95
2023-02-11T21:24:10.214Z,25.15
2023-02-11T21:26:37.667Z,25.95
2023-02-11T21:29:05.477Z,24.58
2023-02-11T21:31:36.304Z,26.15
2023-02-11T21:34:03.475Z,28.05
2023-02-11T21:36:30.460Z,23.02
2023-02-11T21:38:57.515Z,26.27
2023-02-11T21:41:27.330Z,24.42
2023-02-11T21:43:57.621Z,23.35
2023-02-11T21:46:25.641Z,27.05
2023-02-11T21:48:52.607Z,20.38
2023-02-11T21:51:24.910Z,20.45
2023-02-11T21:54:01.426Z,21.00
2023-02-11T21:56:30.830Z,19.83
2023-02-11T21:58:59.417Z,19.90
2023-02-11T22:01:29.254Z,21.95
2023-02-11T22:04:00.019Z,24.58
2023-02-11T22:06:31.184Z,19.08
2023-02-11T22:08:58.627Z,28.92
2023-02-11T22:11:25.560Z,26.90
2023-02-11T22:13:58.611Z,26.58
2023-02-11T22:16:26.709Z,31.88
2023-02-11T22:18:53.690Z,25.98
2023-02-11T22:21:22.401Z,26.35
2023-02-11T22:23:50.778Z,30.95
2023-02-11T22:26:23.220Z,30.33
2023-02-11T22:28:58.705Z,25.38
2023-02-11T22:31:37.542Z,23.67
2023-02-11T22:34:08.975Z,24.85
2023-02-11T22:36:39.365Z,26.92
2023-02-11T22:39:13.047Z,25.88
2023-02-11T22:41:49.440Z,27.73
2023-02-11T22:44:17.240Z,23.88
2023-02-11T22:46:44.223Z,22.33
2023-02-11T22:49:13.924Z,27.80
2023-02-11T22:51:41.505Z,25.45
2023-02-11T22:54:15.351Z,25.10
2023-02-11T22:56:42.916Z,31.27
2023-02-11T22:59:14.665Z,22.75
2023-02-11T23:04:13.826Z,25.27
2023-02-11T23:06:40.513Z,27.30
2023-02-11T23:09:09.797Z,26.05
2023-02-11T23:11:38.103Z,22.08
2023-02-11T23:14:05.742Z,27.42
2023-02-11T23:16:34.206Z,24.77
2023-02-11T23:19:06.451Z,25.35
2023-02-11T23:21:35.412Z,25.33
2023-02-11T23:24:06.133Z,23.48
2023-02-11T23:26:34.799Z,31.23
2023-02-11T23:29:01.757Z,24.48
2023-02-11T23:31:34.198Z,23.33
2023-02-11T23:34:02.256Z,27.23
2023-02-11T23:36:29.526Z,35.55
2023-02-11T23:38:56.714Z,30.48
2023-02-11T23:41:23.913Z,21.52
2023-02-11T23:43:54.383Z,21.17
2023-02-11T23:46:25.357Z,25.17
2023-02-11T23:48:52.947Z,21.02
2023-02-11T23:51:20.251Z,29.35
2023-02-11T23:53:49.245Z,28.25
2023-02-11T23:56:27.049Z,30.17
2023-02-11T23:58:57.152Z,27.10
